sensor_id;sensor_type;location;lat;lon;timestamp;pressure;altitude;pressure_sealevel;temperature
70050;BMP180;57391;51.306;22.680;2024-03-17T00:01:25;99451.00;;;10.70
70050;BMP180;57391;51.306;22.680;2024-03-17T00:03:28;99452.00;;;10.70
70050;BMP180;57391;51.306;22.680;2024-03-17T00:05:29;99454.80;;;10.70
70050;BMP180;57391;51.306;22.680;2024-03-17T00:07:31;99455.80;;;10.60
70050;BMP180;57391;51.306;22.680;2024-03-17T00:09:33;99453.20;;;10.60
70050;BMP180;57391;51.306;22.680;2024-03-17T00:11:35;99454.80;;;10.60
70050;BMP180;57391;51.306;22.680;2024-03-17T00:13:37;99458.00;;;10.50
70050;BMP180;57391;51.306;22.680;2024-03-17T00:15:38;99458.20;;;10.50
70050;BMP180;57391;51.306;22.680;2024-03-17T00:17:40;99456.80;;;10.50
70050;BMP180;57391;51.306;22.680;2024-03-17T00:19:41;99463.60;;;10.50
70050;BMP180;57391;51.306;22.680;2024-03-17T00:21:43;99464.40;;;10.50
70050;BMP180;57391;51.306;22.680;2024-03-17T00:23:48;99463.00;;;10.40
70050;BMP180;57391;51.306;22.680;2024-03-17T00:25:55;99464.20;;;10.40
70050;BMP180;57391;51.306;22.680;2024-03-17T00:27:56;99468.40;;;10.40
70050;BMP180;57391;51.306;22.680;2024-03-17T00:29:59;99465.20;;;10.40
70050;BMP180;57391;51.306;22.680;2024-03-17T00:32:00;99466.60;;;10.40
70050;BMP180;57391;51.306;22.680;2024-03-17T00:34:03;99461.20;;;10.40
70050;BMP180;57391;51.306;22.680;2024-03-17T00:36:06;99466.60;;;10.40
70050;BMP180;57391;51.306;22.680;2024-03-17T00:38:07;99469.20;;;10.40
70050;BMP180;57391;51.306;22.680;2024-03-17T00:40:12;99469.00;;;10.40
70050;BMP180;57391;51.306;22.680;2024-03-17T00:42:14;99470.40;;;10.48
70050;BMP180;57391;51.306;22.680;2024-03-17T00:44:15;99471.40;;;10.48
70050;BMP180;57391;51.306;22.680;2024-03-17T00:46:20;99470.00;;;10.50
70050;BMP180;57391;51.306;22.680;2024-03-17T00:48:22;99468.80;;;10.50
70050;BMP180;57391;51.306;22.680;2024-03-17T00:50:23;99467.00;;;10.50
70050;BMP180;57391;51.306;22.680;2024-03-17T00:52:25;99467.80;;;10.50
70050;BMP180;57391;51.306;22.680;2024-03-17T00:54:27;99469.40;;;10.50
70050;BMP180;57391;51.306;22.680;2024-03-17T00:56:30;99465.60;;;10.50
70050;BMP180;57391;51.306;22.680;2024-03-17T00:58:32;99466.20;;;10.50
70050;BMP180;57391;51.306;22.680;2024-03-17T01:00:34;99462.20;;;10.50
70050;BMP180;57391;51.306;22.680;2024-03-17T01:02:35;99463.60;;;10.50
70050;BMP180;57391;51.306;22.680;2024-03-17T01:04:37;99464.40;;;10.50
70050;BMP180;57391;51.306;22.680;2024-03-17T01:06:38;99469.00;;;10.50
70050;BMP180;57391;51.306;22.680;2024-03-17T01:08:42;99473.40;;;10.50
70050;BMP180;57391;51.306;22.680;2024-03-17T01:10:48;99473.00;;;10.50
70050;BMP180;57391;51.306;22.680;2024-03-17T01:12:53;99470.40;;;10.50
70050;BMP180;57391;51.306;22.680;2024-03-17T01:14:54;99473.80;;;10.50
70050;BMP180;57391;51.306;22.680;2024-03-17T01:16:59;99480.00;;;10.50
70050;BMP180;57391;51.306;22.680;2024-03-17T01:19:00;99477.40;;;10.50
70050;BMP180;57391;51.306;22.680;2024-03-17T01:21:02;99476.40;;;10.50
70050;BMP180;57391;51.306;22.680;2024-03-17T01:23:05;99473.60;;;10.50
70050;BMP180;57391;51.306;22.680;2024-03-17T01:25:07;99476.40;;;10.50
70050;BMP180;57391;51.306;22.680;2024-03-17T01:27:10;99478.40;;;10.52
70050;BMP180;57391;51.306;22.680;2024-03-17T01:29:15;99474.40;;;10.56
70050;BMP180;57391;51.306;22.680;2024-03-17T01:31:17;99475.00;;;10.56
70050;BMP180;57391;51.306;22.680;2024-03-17T01:33:18;99473.00;;;10.60
70050;BMP180;57391;51.306;22.680;2024-03-17T01:35:20;99477.60;;;10.56
70050;BMP180;57391;51.306;22.680;2024-03-17T01:37:22;99478.00;;;10.60
70050;BMP180;57391;51.306;22.680;2024-03-17T01:39:23;99477.80;;;10.60
70050;BMP180;57391;51.306;22.680;2024-03-17T01:41:25;99482.60;;;10.58
70050;BMP180;57391;51.306;22.680;2024-03-17T01:43:27;99485.40;;;10.52
70050;BMP180;57391;51.306;22.680;2024-03-17T01:45:33;99487.60;;;10.50
70050;BMP180;57391;51.306;22.680;2024-03-17T01:47:35;99486.20;;;10.50
70050;BMP180;57391;51.306;22.680;2024-03-17T01:49:37;99488.40;;;10.50
70050;BMP180;57391;51.306;22.680;2024-03-17T01:51:38;99488.60;;;10.50
70050;BMP180;57391;51.306;22.680;2024-03-17T01:53:41;99493.20;;;10.50
70050;BMP180;57391;51.306;22.680;2024-03-17T01:55:46;99493.60;;;10.50
70050;BMP180;57391;51.306;22.680;2024-03-17T01:57:50;99493.40;;;10.48
70050;BMP180;57391;51.306;22.680;2024-03-17T01:59:54;99494.80;;;10.40
70050;BMP180;57391;51.306;22.680;2024-03-17T02:01:57;99503.60;;;10.40
70050;BMP180;57391;51.306;22.680;2024-03-17T02:03:59;99507.20;;;10.40
70050;BMP180;57391;51.306;22.680;2024-03-17T02:06:01;99504.40;;;10.36
70050;BMP180;57391;51.306;22.680;2024-03-17T02:08:04;99506.40;;;10.30
70050;BMP180;57391;51.306;22.680;2024-03-17T02:10:07;99507.60;;;10.30
70050;BMP180;57391;51.306;22.680;2024-03-17T02:12:09;99507.60;;;10.24
70050;BMP180;57391;51.306;22.680;2024-03-17T02:14:13;99510.60;;;10.20
70050;BMP180;57391;51.306;22.680;2024-03-17T02:16:15;99512.80;;;10.20
70050;BMP180;57391;51.306;22.680;2024-03-17T02:18:18;99508.80;;;10.10
70050;BMP180;57391;51.306;22.680;2024-03-17T02:20:20;99514.20;;;10.00
70050;BMP180;57391;51.306;22.680;2024-03-17T02:22:23;99525.60;;;9.90
70050;BMP180;57391;51.306;22.680;2024-03-17T02:24:25;99528.00;;;9.80
70050;BMP180;57391;51.306;22.680;2024-03-17T02:26:27;99536.80;;;9.68
70050;BMP180;57391;51.306;22.680;2024-03-17T02:28:29;99542.80;;;9.50
70050;BMP180;57391;51.306;22.680;2024-03-17T02:30:31;99554.40;;;9.40
70050;BMP180;57391;51.306;22.680;2024-03-17T02:32:32;99563.80;;;9.20
70050;BMP180;57391;51.306;22.680;2024-03-17T02:34:36;99562.80;;;9.10
70050;BMP180;57391;51.306;22.680;2024-03-17T02:36:38;99564.00;;;9.00
70050;BMP180;57391;51.306;22.680;2024-03-17T02:38:40;99570.60;;;8.86
70050;BMP180;57391;51.306;22.680;2024-03-17T02:41:00;99569.40;;;8.70
70050;BMP180;57391;51.306;22.680;2024-03-17T02:43:02;99580.60;;;8.60
70050;BMP180;57391;51.306;22.680;2024-03-17T02:45:05;99587.00;;;8.42
70050;BMP180;57391;51.306;22.680;2024-03-17T02:47:07;99593.00;;;8.30
70050;BMP180;57391;51.306;22.680;2024-03-17T02:49:12;99585.80;;;8.20
70050;BMP180;57391;51.306;22.680;2024-03-17T02:51:17;99591.20;;;8.10
70050;BMP180;57391;51.306;22.680;2024-03-17T02:53:20;99583.60;;;8.00
70050;BMP180;57391;51.306;22.680;2024-03-17T02:55:22;99579.20;;;7.82
70050;BMP180;57391;51.306;22.680;2024-03-17T02:57:26;99577.20;;;7.70
70050;BMP180;57391;51.306;22.680;2024-03-17T02:59:33;99582.80;;;7.60
70050;BMP180;57391;51.306;22.680;2024-03-17T03:01:34;99580.80;;;7.50
70050;BMP180;57391;51.306;22.680;2024-03-17T03:03:36;99589.80;;;7.30
70050;BMP180;57391;51.306;22.680;2024-03-17T03:05:38;99597.80;;;7.20
70050;BMP180;57391;51.306;22.680;2024-03-17T03:07:40;99601.60;;;7.10
70050;BMP180;57391;51.306;22.680;2024-03-17T03:09:42;99610.60;;;7.10
70050;BMP180;57391;51.306;22.680;2024-03-17T03:11:43;99617.60;;;7.00
70050;BMP180;57391;51.306;22.680;2024-03-17T03:13:45;99624.80;;;7.00
70050;BMP180;57391;51.306;22.680;2024-03-17T03:15:48;99629.20;;;7.00
70050;BMP180;57391;51.306;22.680;2024-03-17T03:17:49;99628.60;;;6.96
70050;BMP180;57391;51.306;22.680;2024-03-17T03:19:51;99628.80;;;6.90
70050;BMP180;57391;51.306;22.680;2024-03-17T03:21:53;99633.60;;;6.90
70050;BMP180;57391;51.306;22.680;2024-03-17T03:23:55;99629.00;;;6.90
70050;BMP180;57391;51.306;22.680;2024-03-17T03:26:01;99636.60;;;6.80
70050;BMP180;57391;51.306;22.680;2024-03-17T03:28:05;99639.40;;;6.80
70050;BMP180;57391;51.306;22.680;2024-03-17T03:30:07;99641.00;;;6.80
70050;BMP180;57391;51.306;22.680;2024-03-17T03:32:10;99637.80;;;6.80
70050;BMP180;57391;51.306;22.680;2024-03-17T03:34:11;99631.60;;;6.80
70050;BMP180;57391;51.306;22.680;2024-03-17T03:36:15;99642.40;;;6.70
70050;BMP180;57391;51.306;22.680;2024-03-17T03:38:18;99638.40;;;6.70
70050;BMP180;57391;51.306;22.680;2024-03-17T03:40:21;99647.80;;;6.70
70050;BMP180;57391;51.306;22.680;2024-03-17T03:42:22;99646.80;;;6.70
70050;BMP180;57391;51.306;22.680;2024-03-17T03:44:24;99648.20;;;6.70
70050;BMP180;57391;51.306;22.680;2024-03-17T03:46:26;99649.40;;;6.70
70050;BMP180;57391;51.306;22.680;2024-03-17T03:48:28;99654.60;;;6.62
70050;BMP180;57391;51.306;22.680;2024-03-17T03:50:30;99662.20;;;6.62
70050;BMP180;57391;51.306;22.680;2024-03-17T03:52:32;99663.20;;;6.60
70050;BMP180;57391;51.306;22.680;2024-03-17T03:54:34;99665.40;;;6.60
70050;BMP180;57391;51.306;22.680;2024-03-17T03:56:37;99663.80;;;6.50
70050;BMP180;57391;51.306;22.680;2024-03-17T03:58:39;99659.40;;;6.50
70050;BMP180;57391;51.306;22.680;2024-03-17T04:00:41;99660.40;;;6.40
70050;BMP180;57391;51.306;22.680;2024-03-17T04:02:43;99661.60;;;6.40
70050;BMP180;57391;51.306;22.680;2024-03-17T04:04:45;99665.60;;;6.40
70050;BMP180;57391;51.306;22.680;2024-03-17T04:06:47;99668.80;;;6.34
70050;BMP180;57391;51.306;22.680;2024-03-17T04:08:48;99673.60;;;6.30
70050;BMP180;57391;51.306;22.680;2024-03-17T04:10:50;99673.60;;;6.30
70050;BMP180;57391;51.306;22.680;2024-03-17T04:12:53;99671.40;;;6.30
70050;BMP180;57391;51.306;22.680;2024-03-17T04:14:55;99674.40;;;6.30
70050;BMP180;57391;51.306;22.680;2024-03-17T04:16:56;99668.20;;;6.30
70050;BMP180;57391;51.306;22.680;2024-03-17T04:18:59;99671.80;;;6.28
70050;BMP180;57391;51.306;22.680;2024-03-17T04:21:04;99676.20;;;6.24
70050;BMP180;57391;51.306;22.680;2024-03-17T04:23:06;99681.80;;;6.20
70050;BMP180;57391;51.306;22.680;2024-03-17T04:25:07;99692.60;;;6.20
70050;BMP180;57391;51.306;22.680;2024-03-17T04:27:11;99694.20;;;6.24
70050;BMP180;57391;51.306;22.680;2024-03-17T04:29:12;99692.20;;;6.28
70050;BMP180;57391;51.306;22.680;2024-03-17T04:31:14;99686.00;;;6.30
70050;BMP180;57391;51.306;22.680;2024-03-17T04:33:16;99690.20;;;6.30
70050;BMP180;57391;51.306;22.680;2024-03-17T04:35:18;99689.40;;;6.30
70050;BMP180;57391;51.306;22.680;2024-03-17T04:37:20;99692.60;;;6.30
70050;BMP180;57391;51.306;22.680;2024-03-17T04:39:21;99693.20;;;6.30
70050;BMP180;57391;51.306;22.680;2024-03-17T04:41:23;99692.80;;;6.30
70050;BMP180;57391;51.306;22.680;2024-03-17T04:43:25;99699.60;;;6.30
70050;BMP180;57391;51.306;22.680;2024-03-17T04:45:27;99697.20;;;6.36
70050;BMP180;57391;51.306;22.680;2024-03-17T04:47:28;99697.60;;;6.38
70050;BMP180;57391;51.306;22.680;2024-03-17T04:49:30;99699.20;;;6.36
70050;BMP180;57391;51.306;22.680;2024-03-17T04:51:32;99704.20;;;6.40
70050;BMP180;57391;51.306;22.680;2024-03-17T04:53:36;99706.20;;;6.40
70050;BMP180;57391;51.306;22.680;2024-03-17T04:55:38;99711.80;;;6.40
70050;BMP180;57391;51.306;22.680;2024-03-17T04:57:39;99715.40;;;6.40
70050;BMP180;57391;51.306;22.680;2024-03-17T04:59:41;99712.00;;;6.40
70050;BMP180;57391;51.306;22.680;2024-03-17T05:01:42;99712.80;;;6.40
70050;BMP180;57391;51.306;22.680;2024-03-17T05:03:44;99718.60;;;6.40
70050;BMP180;57391;51.306;22.680;2024-03-17T05:05:46;99716.00;;;6.40
70050;BMP180;57391;51.306;22.680;2024-03-17T05:07:47;99710.40;;;6.40
70050;BMP180;57391;51.306;22.680;2024-03-17T05:09:49;99710.80;;;6.40
70050;BMP180;57391;51.306;22.680;2024-03-17T05:11:51;99716.00;;;6.40
70050;BMP180;57391;51.306;22.680;2024-03-17T05:13:55;99718.00;;;6.34
70050;BMP180;57391;51.306;22.680;2024-03-17T05:16:00;99729.80;;;6.30
70050;BMP180;57391;51.306;22.680;2024-03-17T05:18:01;99731.20;;;6.30
70050;BMP180;57391;51.306;22.680;2024-03-17T05:20:04;99736.60;;;6.30
70050;BMP180;57391;51.306;22.680;2024-03-17T05:22:07;99742.20;;;6.30
70050;BMP180;57391;51.306;22.680;2024-03-17T05:24:08;99743.40;;;6.30
70050;BMP180;57391;51.306;22.680;2024-03-17T05:26:10;99743.00;;;6.30
70050;BMP180;57391;51.306;22.680;2024-03-17T05:28:11;99746.80;;;6.30
70050;BMP180;57391;51.306;22.680;2024-03-17T05:30:13;99747.80;;;6.30
70050;BMP180;57391;51.306;22.680;2024-03-17T05:32:15;99740.00;;;6.30
70050;BMP180;57391;51.306;22.680;2024-03-17T05:34:16;99737.00;;;6.30
70050;BMP180;57391;51.306;22.680;2024-03-17T05:36:18;99740.20;;;6.30
70050;BMP180;57391;51.306;22.680;2024-03-17T05:38:23;99747.40;;;6.30
70050;BMP180;57391;51.306;22.680;2024-03-17T05:40:25;99751.80;;;6.30
70050;BMP180;57391;51.306;22.680;2024-03-17T05:42:27;99746.20;;;6.40
70050;BMP180;57391;51.306;22.680;2024-03-17T05:44:29;99747.40;;;6.56
70050;BMP180;57391;51.306;22.680;2024-03-17T05:46:35;99740.80;;;6.90
70050;BMP180;57391;51.306;22.680;2024-03-17T05:48:39;99748.00;;;7.02
70050;BMP180;57391;51.306;22.680;2024-03-17T05:50:41;99747.80;;;7.26
70050;BMP180;57391;51.306;22.680;2024-03-17T05:52:42;99762.60;;;7.40
70050;BMP180;57391;51.306;22.680;2024-03-17T05:54:44;99766.60;;;7.50
70050;BMP180;57391;51.306;22.680;2024-03-17T05:56:46;99769.80;;;7.58
70050;BMP180;57391;51.306;22.680;2024-03-17T05:58:47;99769.20;;;7.68
70050;BMP180;57391;51.306;22.680;2024-03-17T06:00:49;99777.80;;;7.84
70050;BMP180;57391;51.306;22.680;2024-03-17T06:02:51;99784.60;;;8.00
70050;BMP180;57391;51.306;22.680;2024-03-17T06:04:52;99791.20;;;8.00
70050;BMP180;57391;51.306;22.680;2024-03-17T06:06:54;99793.20;;;8.00
70050;BMP180;57391;51.306;22.680;2024-03-17T06:08:56;99784.80;;;8.00
70050;BMP180;57391;51.306;22.680;2024-03-17T06:10:57;99789.80;;;7.90
70050;BMP180;57391;51.306;22.680;2024-03-17T06:13:02;99791.20;;;7.90
70050;BMP180;57391;51.306;22.680;2024-03-17T06:15:05;99785.00;;;8.10
70050;BMP180;57391;51.306;22.680;2024-03-17T06:17:07;99792.20;;;8.32
70050;BMP180;57391;51.306;22.680;2024-03-17T06:19:09;99794.40;;;8.50
70050;BMP180;57391;51.306;22.680;2024-03-17T06:21:11;99797.80;;;8.60
70050;BMP180;57391;51.306;22.680;2024-03-17T06:23:16;99795.20;;;8.70
70050;BMP180;57391;51.306;22.680;2024-03-17T06:25:17;99804.80;;;8.82
70050;BMP180;57391;51.306;22.680;2024-03-17T06:27:19;99804.40;;;9.00
70050;BMP180;57391;51.306;22.680;2024-03-17T06:29:20;99812.00;;;9.04
70050;BMP180;57391;51.306;22.680;2024-03-17T06:31:22;99812.80;;;9.00
70050;BMP180;57391;51.306;22.680;2024-03-17T06:33:24;99812.20;;;8.92
70050;BMP180;57391;51.306;22.680;2024-03-17T06:35:26;99825.60;;;8.90
70050;BMP180;57391;51.306;22.680;2024-03-17T06:37:28;99825.80;;;8.80
70050;BMP180;57391;51.306;22.680;2024-03-17T06:39:29;99824.00;;;8.70
70050;BMP180;57391;51.306;22.680;2024-03-17T06:41:31;99825.40;;;8.60
70050;BMP180;57391;51.306;22.680;2024-03-17T06:43:32;99825.40;;;8.52
70050;BMP180;57391;51.306;22.680;2024-03-17T06:45:34;99828.80;;;8.50
70050;BMP180;57391;51.306;22.680;2024-03-17T06:47:37;99825.60;;;8.42
70050;BMP180;57391;51.306;22.680;2024-03-17T06:49:38;99826.80;;;8.40
70050;BMP180;57391;51.306;22.680;2024-03-17T06:51:40;99823.20;;;8.40
70050;BMP180;57391;51.306;22.680;2024-03-17T06:53:42;99820.60;;;8.40
70050;BMP180;57391;51.306;22.680;2024-03-17T06:55:43;99821.60;;;8.52
70050;BMP180;57391;51.306;22.680;2024-03-17T06:57:47;99820.80;;;8.64
70050;BMP180;57391;51.306;22.680;2024-03-17T06:59:49;99816.00;;;8.80
70050;BMP180;57391;51.306;22.680;2024-03-17T07:01:51;99823.60;;;8.82
70050;BMP180;57391;51.306;22.680;2024-03-17T07:03:52;99819.80;;;8.90
70050;BMP180;57391;51.306;22.680;2024-03-17T07:05:56;99822.60;;;8.90
70050;BMP180;57391;51.306;22.680;2024-03-17T07:07:58;99827.40;;;8.86
70050;BMP180;57391;51.306;22.680;2024-03-17T07:10:00;99827.40;;;8.80
70050;BMP180;57391;51.306;22.680;2024-03-17T07:12:10;99828.60;;;8.80
70050;BMP180;57391;51.306;22.680;2024-03-17T07:14:15;99827.00;;;8.70
70050;BMP180;57391;51.306;22.680;2024-03-17T07:16:17;99822.60;;;8.70
70050;BMP180;57391;51.306;22.680;2024-03-17T07:18:19;99822.40;;;8.70
70050;BMP180;57391;51.306;22.680;2024-03-17T07:20:21;99827.60;;;8.70
70050;BMP180;57391;51.306;22.680;2024-03-17T07:22:23;99830.20;;;8.70
70050;BMP180;57391;51.306;22.680;2024-03-17T07:24:27;99826.00;;;8.70
70050;BMP180;57391;51.306;22.680;2024-03-17T07:26:29;99829.80;;;8.70
70050;BMP180;57391;51.306;22.680;2024-03-17T07:28:31;99835.20;;;8.60
70050;BMP180;57391;51.306;22.680;2024-03-17T07:30:34;99829.80;;;8.52
70050;BMP180;57391;51.306;22.680;2024-03-17T07:32:35;99832.00;;;8.50
70050;BMP180;57391;51.306;22.680;2024-03-17T07:34:37;99838.20;;;8.40
70050;BMP180;57391;51.306;22.680;2024-03-17T07:36:39;99833.80;;;8.30
70050;BMP180;57391;51.306;22.680;2024-03-17T07:38:41;99828.80;;;8.20
70050;BMP180;57391;51.306;22.680;2024-03-17T07:40:45;99835.60;;;8.20
70050;BMP180;57391;51.306;22.680;2024-03-17T07:42:47;99836.60;;;8.20
70050;BMP180;57391;51.306;22.680;2024-03-17T07:44:48;99834.60;;;8.16
70050;BMP180;57391;51.306;22.680;2024-03-17T07:46:50;99836.20;;;8.10
70050;BMP180;57391;51.306;22.680;2024-03-17T07:48:51;99830.80;;;8.02
70050;BMP180;57391;51.306;22.680;2024-03-17T07:50:55;99836.20;;;8.00
70050;BMP180;57391;51.306;22.680;2024-03-17T07:52:57;99840.60;;;7.90
70050;BMP180;57391;51.306;22.680;2024-03-17T07:54:59;99840.40;;;7.80
70050;BMP180;57391;51.306;22.680;2024-03-17T07:57:01;99839.40;;;7.80
70050;BMP180;57391;51.306;22.680;2024-03-17T07:59:02;99838.60;;;7.70
70050;BMP180;57391;51.306;22.680;2024-03-17T08:01:14;99838.20;;;7.70
70050;BMP180;57391;51.306;22.680;2024-03-17T08:03:16;99837.40;;;7.70
70050;BMP180;57391;51.306;22.680;2024-03-17T08:05:18;99841.00;;;7.66
70050;BMP180;57391;51.306;22.680;2024-03-17T08:07:19;99846.80;;;7.60
70050;BMP180;57391;51.306;22.680;2024-03-17T08:09:21;99838.80;;;7.60
70050;BMP180;57391;51.306;22.680;2024-03-17T08:11:23;99841.80;;;7.60
70050;BMP180;57391;51.306;22.680;2024-03-17T08:13:26;99839.40;;;7.60
70050;BMP180;57391;51.306;22.680;2024-03-17T08:15:30;99834.80;;;7.60
70050;BMP180;57391;51.306;22.680;2024-03-17T08:17:31;99840.20;;;7.60
70050;BMP180;57391;51.306;22.680;2024-03-17T08:19:33;99830.60;;;7.62
70050;BMP180;57391;51.306;22.680;2024-03-17T08:21:35;99835.80;;;7.66
70050;BMP180;57391;51.306;22.680;2024-03-17T08:23:36;99835.00;;;7.60
70050;BMP180;57391;51.306;22.680;2024-03-17T08:25:52;99833.20;;;7.70
70050;BMP180;57391;51.306;22.680;2024-03-17T08:27:55;99834.80;;;7.70
70050;BMP180;57391;51.306;22.680;2024-03-17T08:29:56;99836.20;;;7.70
70050;BMP180;57391;51.306;22.680;2024-03-17T08:31:58;99835.00;;;7.78
70050;BMP180;57391;51.306;22.680;2024-03-17T08:34:00;99834.60;;;7.80
70050;BMP180;57391;51.306;22.680;2024-03-17T08:36:06;99832.40;;;7.80
70050;BMP180;57391;51.306;22.680;2024-03-17T08:38:08;99834.00;;;7.82
70050;BMP180;57391;51.306;22.680;2024-03-17T08:40:11;99827.20;;;7.96
70050;BMP180;57391;51.306;22.680;2024-03-17T08:42:13;99826.00;;;8.14
70050;BMP180;57391;51.306;22.680;2024-03-17T08:44:15;99828.40;;;8.26
70050;BMP180;57391;51.306;22.680;2024-03-17T08:46:16;99840.60;;;8.36
70050;BMP180;57391;51.306;22.680;2024-03-17T08:48:18;99836.80;;;8.40
70050;BMP180;57391;51.306;22.680;2024-03-17T08:50:20;99835.20;;;8.40
70050;BMP180;57391;51.306;22.680;2024-03-17T08:52:21;99839.40;;;8.30
70050;BMP180;57391;51.306;22.680;2024-03-17T08:54:23;99835.80;;;8.28
70050;BMP180;57391;51.306;22.680;2024-03-17T08:56:25;99837.60;;;8.20
70050;BMP180;57391;51.306;22.680;2024-03-17T08:58:27;99835.00;;;8.10
70050;BMP180;57391;51.306;22.680;2024-03-17T09:00:28;99834.20;;;8.10
70050;BMP180;57391;51.306;22.680;2024-03-17T09:02:31;99832.60;;;8.00
70050;BMP180;57391;51.306;22.680;2024-03-17T09:04:33;99826.40;;;8.00
70050;BMP180;57391;51.306;22.680;2024-03-17T09:06:35;99824.40;;;8.00
70050;BMP180;57391;51.306;22.680;2024-03-17T09:08:37;99827.60;;;8.00
70050;BMP180;57391;51.306;22.680;2024-03-17T09:10:43;99827.60;;;8.00
70050;BMP180;57391;51.306;22.680;2024-03-17T09:12:45;99819.80;;;8.00
70050;BMP180;57391;51.306;22.680;2024-03-17T09:14:48;99818.80;;;8.00
70050;BMP180;57391;51.306;22.680;2024-03-17T09:16:50;99822.00;;;8.00
70050;BMP180;57391;51.306;22.680;2024-03-17T09:18:52;99824.80;;;8.08
70050;BMP180;57391;51.306;22.680;2024-03-17T09:21:03;99829.40;;;8.10
70050;BMP180;57391;51.306;22.680;2024-03-17T09:23:05;99828.80;;;8.08
70050;BMP180;57391;51.306;22.680;2024-03-17T09:25:08;99829.80;;;8.06
70050;BMP180;57391;51.306;22.680;2024-03-17T09:27:10;99832.80;;;8.00
70050;BMP180;57391;51.306;22.680;2024-03-17T09:29:14;99831.20;;;8.00
70050;BMP180;57391;51.306;22.680;2024-03-17T09:31:18;99835.80;;;7.90
70050;BMP180;57391;51.306;22.680;2024-03-17T09:33:22;99830.20;;;7.90
70050;BMP180;57391;51.306;22.680;2024-03-17T09:35:24;99831.80;;;7.90
70050;BMP180;57391;51.306;22.680;2024-03-17T09:37:26;99834.40;;;7.90
70050;BMP180;57391;51.306;22.680;2024-03-17T09:39:52;99834.20;;;7.92
70050;BMP180;57391;51.306;22.680;2024-03-17T09:41:58;99827.40;;;8.00
70050;BMP180;57391;51.306;22.680;2024-03-17T09:44:06;99831.60;;;8.00
70050;BMP180;57391;51.306;22.680;2024-03-17T09:46:11;99828.20;;;8.00
70050;BMP180;57391;51.306;22.680;2024-03-17T09:48:17;99823.00;;;8.00
70050;BMP180;57391;51.306;22.680;2024-03-17T09:50:19;99820.60;;;8.00
70050;BMP180;57391;51.306;22.680;2024-03-17T09:52:22;99827.00;;;8.00
70050;BMP180;57391;51.306;22.680;2024-03-17T09:54:24;99817.80;;;8.08
70050;BMP180;57391;51.306;22.680;2024-03-17T09:56:26;99822.00;;;8.10
70050;BMP180;57391;51.306;22.680;2024-03-17T09:58:27;99811.00;;;8.18
70050;BMP180;57391;51.306;22.680;2024-03-17T10:00:29;99816.60;;;8.34
70050;BMP180;57391;51.306;22.680;2024-03-17T10:02:30;99813.40;;;8.52
70050;BMP180;57391;51.306;22.680;2024-03-17T10:04:32;99808.40;;;8.70
70050;BMP180;57391;51.306;22.680;2024-03-17T10:06:45;99816.20;;;8.82
70050;BMP180;57391;51.306;22.680;2024-03-17T10:08:52;99816.80;;;8.90
70050;BMP180;57391;51.306;22.680;2024-03-17T10:10:55;99818.40;;;8.90
70050;BMP180;57391;51.306;22.680;2024-03-17T10:12:59;99817.80;;;8.90
70050;BMP180;57391;51.306;22.680;2024-03-17T10:15:01;99825.20;;;9.00
70050;BMP180;57391;51.306;22.680;2024-03-17T10:17:03;99818.20;;;9.00
70050;BMP180;57391;51.306;22.680;2024-03-17T10:19:23;99818.00;;;9.00
70050;BMP180;57391;51.306;22.680;2024-03-17T10:21:27;99805.40;;;9.10
70050;BMP180;57391;51.306;22.680;2024-03-17T10:23:29;99811.00;;;9.10
70050;BMP180;57391;51.306;22.680;2024-03-17T10:25:39;99827.00;;;9.10
70050;BMP180;57391;51.306;22.680;2024-03-17T10:27:43;99828.40;;;9.08
70050;BMP180;57391;51.306;22.680;2024-03-17T10:29:51;99829.80;;;9.00
70050;BMP180;57391;51.306;22.680;2024-03-17T10:31:55;99826.60;;;8.90
70050;BMP180;57391;51.306;22.680;2024-03-17T10:34:03;99827.00;;;8.90
70050;BMP180;57391;51.306;22.680;2024-03-17T10:36:04;99829.20;;;8.80
70050;BMP180;57391;51.306;22.680;2024-03-17T10:38:09;99827.60;;;8.76
70050;BMP180;57391;51.306;22.680;2024-03-17T10:40:14;99824.00;;;8.70
70050;BMP180;57391;51.306;22.680;2024-03-17T10:42:25;99824.20;;;8.70
70050;BMP180;57391;51.306;22.680;2024-03-17T10:44:29;99824.20;;;8.60
70050;BMP180;57391;51.306;22.680;2024-03-17T10:46:31;99824.60;;;8.50
70050;BMP180;57391;51.306;22.680;2024-03-17T10:48:34;99831.00;;;8.50
70050;BMP180;57391;51.306;22.680;2024-03-17T10:50:38;99832.80;;;8.40
70050;BMP180;57391;51.306;22.680;2024-03-17T10:52:50;99835.40;;;8.30
70050;BMP180;57391;51.306;22.680;2024-03-17T10:54:53;99832.60;;;8.30
70050;BMP180;57391;51.306;22.680;2024-03-17T10:59:27;99832.60;;;8.10
70050;BMP180;57391;51.306;22.680;2024-03-17T11:01:30;99832.60;;;8.10
70050;BMP180;57391;51.306;22.680;2024-03-17T11:03:34;99831.60;;;8.00
70050;BMP180;57391;51.306;22.680;2024-03-17T11:05:37;99830.60;;;8.00
70050;BMP180;57391;51.306;22.680;2024-03-17T11:07:40;99824.80;;;8.04
70050;BMP180;57391;51.306;22.680;2024-03-17T11:09:49;99826.40;;;8.10
70050;BMP180;57391;51.306;22.680;2024-03-17T11:11:52;99824.20;;;8.18
70050;BMP180;57391;51.306;22.680;2024-03-17T11:14:18;99821.80;;;8.20
70050;BMP180;57391;51.306;22.680;2024-03-17T11:16:27;99816.20;;;8.20
70050;BMP180;57391;51.306;22.680;2024-03-17T11:18:34;99820.40;;;8.20
70050;BMP180;57391;51.306;22.680;2024-03-17T11:20:41;99819.40;;;8.20
70050;BMP180;57391;51.306;22.680;2024-03-17T11:22:45;99817.20;;;8.20
70050;BMP180;57391;51.306;22.680;2024-03-17T11:24:46;99815.40;;;8.10
70050;BMP180;57391;51.306;22.680;2024-03-17T11:26:48;99824.40;;;8.10
70050;BMP180;57391;51.306;22.680;2024-03-17T11:28:51;99822.00;;;8.10
70050;BMP180;57391;51.306;22.680;2024-03-17T11:30:53;99814.60;;;8.00
70050;BMP180;57391;51.306;22.680;2024-03-17T11:35:31;99812.20;;;8.00
70050;BMP180;57391;51.306;22.680;2024-03-17T11:37:43;99814.80;;;8.00
70050;BMP180;57391;51.306;22.680;2024-03-17T11:39:51;99803.40;;;8.00
70050;BMP180;57391;51.306;22.680;2024-03-17T11:42:05;99809.40;;;8.00
70050;BMP180;57391;51.306;22.680;2024-03-17T11:46:23;99811.20;;;8.00
70050;BMP180;57391;51.306;22.680;2024-03-17T11:48:25;99806.60;;;8.00
70050;BMP180;57391;51.306;22.680;2024-03-17T11:50:29;99801.60;;;8.00
70050;BMP180;57391;51.306;22.680;2024-03-17T11:52:31;99808.80;;;8.00
70050;BMP180;57391;51.306;22.680;2024-03-17T11:54:36;99806.80;;;8.00